Time;durP1;ratioP1;P1;durP2;ratioP2;P2;SDS_P1;SDS_P2;PMS_P1;PMS_P2;Temp;Humidity;BMP_temperature;BMP_pressure;BME280_temperature;BME280_humidity;BME280_pressure;Samples;Min_cycle;Max_cycle;Signal;HPM_P1;HPM_P2
2021/06/28 00:00:57;;;;;;;4.47;0.90;;;21.40;99.90;;;;;;1862444;77;21050;-73
2021/06/28 00:03:23;;;;;;;1.75;0.88;;;21.30;99.90;;;;;;1862561;77;21143;-72
2021/06/28 00:05:49;;;;;;;1.02;0.95;;;21.30;99.90;;;;;;1862561;77;21093;-73
2021/06/28 00:08:15;;;;;;;1.10;0.90;;;21.10;99.90;;;;;;1862618;77;21505;-73
2021/06/28 00:10:41;;;;;;;0.80;0.80;;;21.10;99.90;;;;;;1862607;77;21494;-73
2021/06/28 00:13:08;;;;;;;0.70;0.70;;;20.80;99.90;;;;;;1862381;77;21502;-73
2021/06/28 00:15:41;;;;;;;1.00;0.98;;;20.80;99.90;;;;;;1871272;76;21498;-73
2021/06/28 00:18:04;;;;;;;5.70;0.90;;;20.60;99.90;;;;;;1866366;76;21435;-72
2021/06/28 00:20:33;;;;;;;1.10;0.80;;;20.60;99.90;;;;;;1866218;76;21597;-72
2021/06/28 00:22:58;;;;;;;6.60;0.70;;;20.50;99.90;;;;;;1859983;77;21093;-72
2021/06/28 00:25:24;;;;;;;1.05;0.70;;;20.50;99.90;;;;;;1862371;76;21211;-72
2021/06/28 00:27:50;;;;;;;0.95;0.70;;;20.40;99.90;;;;;;1862671;77;21093;-73
2021/06/28 00:30:17;;;;;;;1.40;1.02;;;20.40;99.90;;;;;;1862389;77;21050;-73
2021/06/28 00:32:43;;;;;;;5.37;0.80;;;20.20;99.90;;;;;;1862484;77;21077;-73
2021/06/28 00:35:09;;;;;;;1.17;0.95;;;20.10;99.90;;;;;;1862935;76;21140;-73
2021/06/28 00:37:35;;;;;;;2.22;1.10;;;20.10;99.90;;;;;;1864350;76;21143;-73
2021/06/28 00:40:01;;;;;;;2.10;1.10;;;20.10;99.90;;;;;;1864483;76;21094;-73
2021/06/28 00:42:27;;;;;;;3.50;1.00;;;20.10;99.90;;;;;;1865536;76;21489;-72
2021/06/28 00:44:53;;;;;;;1.40;1.15;;;20.00;99.90;;;;;;1865310;76;21606;-72
2021/06/28 00:47:19;;;;;;;1.67;1.10;;;19.90;99.90;;;;;;1862579;77;21497;-73
2021/06/28 00:49:46;;;;;;;1.32;1.22;;;19.90;99.90;;;;;;1868218;76;21558;-72
2021/06/28 00:52:12;;;;;;;1.35;1.10;;;19.90;99.90;;;;;;1862470;77;21567;-74
2021/06/28 00:54:38;;;;;;;3.50;1.40;;;19.90;99.90;;;;;;1862766;76;21489;-72
2021/06/28 00:57:04;;;;;;;2.00;1.20;;;19.90;99.90;;;;;;1863844;76;21474;-72
2021/06/28 00:59:30;;;;;;;3.17;1.65;;;20.00;99.90;;;;;;1863595;76;21050;-72
2021/06/28 01:01:58;;;;;;;1.17;1.10;;;19.90;99.90;;;;;;1864631;76;21077;-72
2021/06/28 01:04:24;;;;;;;1.72;0.90;;;19.90;99.90;;;;;;1870152;76;21100;-71
2021/06/28 01:06:50;;;;;;;1.22;1.00;;;19.90;99.90;;;;;;1870407;76;21159;-71
2021/06/28 01:09:16;;;;;;;2.22;1.32;;;19.90;99.90;;;;;;1864480;76;21431;-72
2021/06/28 01:11:42;;;;;;;3.72;1.27;;;19.80;99.90;;;;;;1864095;76;21603;-72
2021/06/28 01:14:09;;;;;;;1.57;1.30;;;19.90;99.90;;;;;;1865269;77;21454;-71
2021/06/28 01:16:35;;;;;;;1.45;1.10;;;19.90;99.90;;;;;;1866166;76;21587;-72
2021/06/28 01:19:01;;;;;;;2.70;1.40;;;19.90;99.90;;;;;;1863981;77;21227;-72
2021/06/28 01:21:28;;;;;;;2.98;1.25;;;19.90;99.90;;;;;;1867716;77;21055;-72
2021/06/28 01:23:54;;;;;;;2.37;1.20;;;19.90;99.90;;;;;;1862899;77;21509;-72
2021/06/28 01:26:20;;;;;;;1.40;1.20;;;19.90;99.90;;;;;;1866625;76;21634;-72
2021/06/28 01:28:46;;;;;;;4.12;1.00;;;19.70;99.90;;;;;;1862862;77;21478;-71
2021/06/28 01:31:13;;;;;;;4.20;1.20;;;19.70;99.90;;;;;;1873596;76;21478;-72
2021/06/28 01:33:39;;;;;;;1.77;1.20;;;19.70;99.90;;;;;;1871062;76;21635;-72
2021/06/28 01:36:05;;;;;;;1.30;1.02;;;19.80;99.90;;;;;;1862515;77;21403;-71
2021/06/28 01:38:31;;;;;;;7.55;1.27;;;19.70;99.90;;;;;;1863351;76;21198;-72
2021/06/28 01:40:57;;;;;;;1.67;1.30;;;19.80;99.90;;;;;;1862550;77;21042;-72
2021/06/28 01:43:24;;;;;;;1.45;1.30;;;19.90;99.90;;;;;;1869846;76;21089;-72
2021/06/28 01:45:50;;;;;;;2.42;1.10;;;19.80;99.90;;;;;;1862556;77;21140;-72
2021/06/28 01:48:16;;;;;;;3.40;1.10;;;19.80;99.90;;;;;;1864030;76;21097;-72
2021/06/28 01:50:42;;;;;;;2.05;0.90;;;19.70;99.90;;;;;;1862441;77;21167;-72
2021/06/28 01:53:08;;;;;;;3.65;1.20;;;19.80;99.90;;;;;;1863837;76;21046;-72
2021/06/28 01:55:34;;;;;;;1.00;1.00;;;19.70;99.90;;;;;;1864379;76;21089;-73
2021/06/28 01:58:00;;;;;;;1.52;1.42;;;19.70;99.90;;;;;;1866794;76;21085;-72
2021/06/28 02:00:26;;;;;;;2.17;1.20;;;19.60;99.90;;;;;;1862936;76;21082;-73
2021/06/28 02:02:53;;;;;;;1.77;1.30;;;19.60;99.90;;;;;;1864407;76;21054;-73
2021/06/28 02:05:19;;;;;;;1.20;1.10;;;19.60;99.90;;;;;;1866119;76;21093;-73
2021/06/28 02:07:45;;;;;;;0.85;0.85;;;19.50;99.90;;;;;;1863558;76;21607;-72
2021/06/28 02:10:11;;;;;;;1.70;1.17;;;19.50;99.90;;;;;;1862383;76;21549;-73
2021/06/28 02:12:37;;;;;;;1.90;1.20;;;19.50;99.90;;;;;;1862982;77;21497;-73
2021/06/28 02:15:03;;;;;;;2.45;1.57;;;19.50;99.90;;;;;;1862918;76;21485;-72
2021/06/28 02:17:29;;;;;;;1.60;1.05;;;19.40;99.90;;;;;;1866029;76;21505;-72
2021/06/28 02:19:55;;;;;;;1.00;1.00;;;19.30;99.90;;;;;;1864517;76;21525;-72
2021/06/28 02:22:22;;;;;;;3.67;1.00;;;19.50;99.90;;;;;;1865240;76;21521;-72
2021/06/28 02:24:48;;;;;;;4.33;1.20;;;19.50;99.90;;;;;;1862478;77;21085;-72
2021/06/28 02:27:14;;;;;;;1.37;1.10;;;19.50;99.90;;;;;;1854222;76;21085;-72
2021/06/28 02:29:40;;;;;;;1.85;1.15;;;19.50;99.90;;;;;;1863541;76;21094;-72
2021/06/28 02:32:06;;;;;;;1.40;1.30;;;19.50;99.90;;;;;;1869779;76;21083;-72
2021/06/28 02:34:32;;;;;;;3.70;1.32;;;19.50;99.90;;;;;;1870421;76;21085;-72
2021/06/28 02:36:58;;;;;;;1.82;1.40;;;19.50;99.90;;;;;;1867149;76;21089;-73
2021/06/28 02:39:24;;;;;;;2.60;1.20;;;19.40;99.90;;;;;;1864804;76;21081;-72
2021/06/28 02:41:51;;;;;;;2.50;1.30;;;19.50;99.90;;;;;;1864071;76;21070;-72
2021/06/28 02:44:18;;;;;;;1.75;1.20;;;19.50;99.90;;;;;;1866080;76;21163;-72
2021/06/28 02:46:45;;;;;;;2.62;1.22;;;19.40;99.90;;;;;;1866661;76;21069;-72
2021/06/28 02:49:11;;;;;;;1.57;1.47;;;19.40;99.90;;;;;;1862303;77;21477;-72
2021/06/28 02:51:37;;;;;;;1.75;1.40;;;19.40;99.90;;;;;;1863404;76;21059;-72
2021/06/28 02:54:03;;;;;;;2.70;1.30;;;19.40;99.90;;;;;;1864342;76;21155;-72
2021/06/28 02:56:29;;;;;;;1.87;1.20;;;19.30;99.90;;;;;;1864513;76;21093;-72
2021/06/28 02:58:55;;;;;;;4.80;1.17;;;19.20;99.90;;;;;;1862827;77;21082;-72
2021/06/28 03:01:21;;;;;;;1.52;1.17;;;19.20;99.90;;;;;;1864330;76;21094;-72
2021/06/28 03:03:47;;;;;;;2.25;1.32;;;19.30;99.90;;;;;;1863918;77;21085;-72
2021/06/28 03:06:14;;;;;;;2.25;1.57;;;19.30;99.90;;;;;;1864379;76;21078;-72
2021/06/28 03:08:40;;;;;;;2.72;1.60;;;19.30;99.90;;;;;;1866802;76;21086;-72
2021/06/28 03:11:06;;;;;;;3.25;1.27;;;19.40;99.90;;;;;;1866253;76;21053;-73
2021/06/28 03:13:32;;;;;;;2.85;1.32;;;19.40;99.90;;;;;;1870632;76;21093;-71
2021/06/28 03:16:00;;;;;;;1.98;1.42;;;19.30;99.90;;;;;;1866694;76;21066;-71
2021/06/28 03:18:26;;;;;;;2.10;1.37;;;19.40;99.90;;;;;;1870737;76;21116;-72
2021/06/28 03:20:52;;;;;;;1.50;1.35;;;19.40;99.90;;;;;;1866196;76;21144;-72
2021/06/28 03:23:18;;;;;;;1.60;1.32;;;19.40;99.90;;;;;;1864489;76;21168;-72
2021/06/28 03:25:44;;;;;;;2.60;1.35;;;19.30;99.90;;;;;;1860872;76;21148;-72
2021/06/28 03:28:11;;;;;;;1.47;1.37;;;19.40;99.90;;;;;;1862896;77;21334;-72
2021/06/28 03:30:37;;;;;;;2.10;1.22;;;19.40;99.90;;;;;;1865975;76;21061;-72
2021/06/28 03:33:03;;;;;;;1.70;1.30;;;19.40;99.90;;;;;;1866568;76;21089;-72
2021/06/28 03:35:30;;;;;;;1.37;1.27;;;19.40;99.90;;;;;;1862575;77;21050;-73
2021/06/28 03:37:56;;;;;;;1.42;1.12;;;19.40;99.90;;;;;;1865562;76;21587;-72
2021/06/28 03:40:22;;;;;;;1.22;1.12;;;19.30;99.90;;;;;;1865181;76;21537;-72
2021/06/28 03:42:48;;;;;;;1.40;1.30;;;19.30;99.90;;;;;;1864463;76;21566;-72
2021/06/28 03:45:15;;;;;;;4.58;1.37;;;19.30;99.90;;;;;;1863496;76;21494;-72
2021/06/28 03:47:41;;;;;;;1.17;1.07;;;19.30;99.90;;;;;;1864480;76;21564;-72
2021/06/28 03:50:07;;;;;;;3.20;1.20;;;19.30;99.90;;;;;;1865241;76;21513;-72
2021/06/28 03:52:33;;;;;;;2.65;1.45;;;19.30;99.90;;;;;;1862834;76;21595;-73
2021/06/28 03:54:59;;;;;;;1.22;1.12;;;19.30;99.90;;;;;;1864134;76;21026;-72
2021/06/28 03:57:25;;;;;;;1.32;1.12;;;19.30;99.90;;;;;;1865494;76;21093;-72
2021/06/28 03:59:51;;;;;;;1.65;1.45;;;19.30;99.90;;;;;;1866369;76;21117;-73
2021/06/28 04:02:17;;;;;;;1.10;1.00;;;19.40;99.90;;;;;;1863005;76;21078;-72
2021/06/28 04:04:48;;;;;;;1.52;1.42;;;19.40;99.90;;;;;;1862609;76;21066;-72
2021/06/28 04:07:11;;;;;;;2.50;1.25;;;19.40;99.90;;;;;;1862813;77;21516;-72
2021/06/28 04:09:37;;;;;;;1.77;1.57;;;19.40;99.90;;;;;;1859434;76;21588;-72
2021/06/28 04:12:04;;;;;;;3.75;1.30;;;19.40;99.90;;;;;;1863799;76;21497;-72
2021/06/28 04:14:30;;;;;;;1.42;1.30;;;19.40;99.90;;;;;;1862667;77;21514;-73
2021/06/28 04:16:56;;;;;;;3.37;1.65;;;19.40;99.90;;;;;;1863628;77;21521;-73
2021/06/28 04:19:22;;;;;;;1.50;1.30;;;19.40;99.90;;;;;;1867765;76;21085;-73
2021/06/28 04:21:48;;;;;;;4.35;1.25;;;19.40;99.90;;;;;;1864710;76;21090;-72
2021/06/28 04:24:14;;;;;;;2.60;1.47;;;19.50;99.90;;;;;;1871199;76;21096;-73
2021/06/28 04:26:40;;;;;;;6.35;1.45;;;19.60;99.90;;;;;;1866296;76;21192;-72
2021/06/28 04:29:07;;;;;;;3.72;1.60;;;19.60;99.90;;;;;;1862443;77;21046;-72
2021/06/28 04:31:33;;;;;;;9.10;1.50;;;19.70;99.90;;;;;;1868493;76;21171;-72
2021/06/28 04:33:59;;;;;;;2.75;1.32;;;19.70;99.90;;;;;;1865902;76;21497;-72
2021/06/28 04:36:25;;;;;;;5.33;1.60;;;19.80;99.90;;;;;;1862913;76;21509;-72
2021/06/28 04:38:51;;;;;;;2.62;1.40;;;19.90;99.90;;;;;;1865804;76;21450;-73
2021/06/28 04:41:17;;;;;;;3.15;1.50;;;20.00;99.90;;;;;;1864368;76;21559;-72
2021/06/28 04:43:43;;;;;;;4.90;1.70;;;20.10;99.90;;;;;;1864515;76;21559;-72
2021/06/28 04:46:09;;;;;;;3.67;1.35;;;20.00;99.90;;;;;;1864691;76;21579;-72
2021/06/28 04:48:35;;;;;;;1.15;1.15;;;19.90;99.90;;;;;;1862887;76;21050;-72
2021/06/28 04:51:02;;;;;;;2.22;1.10;;;20.00;99.90;;;;;;1862522;77;21124;-72
2021/06/28 04:53:28;;;;;;;1.25;1.10;;;19.80;99.90;;;;;;1863142;76;21081;-72
2021/06/28 04:55:54;;;;;;;2.47;1.30;;;19.90;99.90;;;;;;1863556;76;21087;-72
2021/06/28 04:58:20;;;;;;;2.15;1.10;;;19.90;99.90;;;;;;1864533;76;21164;-72
2021/06/28 05:00:46;;;;;;;2.50;1.60;;;19.90;99.90;;;;;;1864558;76;21046;-72
2021/06/28 05:03:12;;;;;;;2.98;1.20;;;20.00;99.90;;;;;;1871544;76;21163;-72
2021/06/28 05:05:38;;;;;;;2.35;1.47;;;20.00;99.90;;;;;;1864551;76;21097;-72
2021/06/28 05:08:05;;;;;;;2.08;1.30;;;19.90;99.90;;;;;;1864156;77;21098;-72
2021/06/28 05:10:31;;;;;;;2.37;1.22;;;19.90;99.90;;;;;;1862433;76;21078;-71
2021/06/28 05:12:57;;;;;;;5.72;1.50;;;19.90;99.90;;;;;;1865567;76;21073;-72
2021/06/28 05:15:23;;;;;;;3.05;1.20;;;19.90;99.90;;;;;;1863943;76;21093;-72
2021/06/28 05:17:49;;;;;;;1.55;1.32;;;20.00;99.90;;;;;;1864694;76;21082;-72
2021/06/28 05:20:15;;;;;;;1.80;1.60;;;20.10;99.90;;;;;;1866308;76;21089;-72
2021/06/28 05:22:41;;;;;;;1.98;1.57;;;20.20;99.90;;;;;;1865960;76;21163;-72
2021/06/28 05:25:07;;;;;;;3.20;1.60;;;20.40;99.90;;;;;;1862526;77;21167;-72
2021/06/28 05:27:34;;;;;;;1.60;1.50;;;20.50;99.90;;;;;;1862374;77;21045;-73
2021/06/28 05:30:00;;;;;;;7.58;1.80;;;20.90;99.90;;;;;;1863858;76;21163;-72
2021/06/28 05:32:26;;;;;;;2.42;1.10;;;21.60;99.90;;;;;;1864375;76;21050;-72
2021/06/28 05:34:52;;;;;;;1.52;1.42;;;21.80;99.90;;;;;;1865555;76;21206;-73
2021/06/28 05:37:18;;;;;;;2.27;1.25;;;21.60;99.90;;;;;;1863271;76;21166;-72
2021/06/28 05:39:45;;;;;;;2.37;1.35;;;21.30;99.90;;;;;;1864274;76;21172;-72
2021/06/28 05:42:11;;;;;;;2.02;1.10;;;21.30;99.90;;;;;;1864130;76;21164;-72
2021/06/28 05:44:37;;;;;;;2.60;1.00;;;21.30;99.90;;;;;;1864954;76;21062;-71
2021/06/28 05:47:03;;;;;;;1.15;1.05;;;21.30;99.90;;;;;;1862991;76;21085;-72
2021/06/28 05:49:31;;;;;;;6.80;1.65;;;21.30;99.90;;;;;;1863905;77;21154;-72
2021/06/28 05:51:58;;;;;;;2.83;1.40;;;21.60;99.90;;;;;;1870430;76;21595;-72
2021/06/28 05:54:25;;;;;;;4.42;1.55;;;22.20;99.90;;;;;;1863294;76;21077;-72
2021/06/28 05:56:51;;;;;;;1.85;1.47;;;22.80;99.90;;;;;;1863680;76;21054;-73
2021/06/28 05:59:17;;;;;;;5.28;1.50;;;23.80;99.90;;;;;;1865815;76;21077;-73
2021/06/28 06:01:43;;;;;;;2.55;1.20;;;24.40;99.90;;;;;;1871105;76;21151;-73
2021/06/28 06:04:14;;;;;;;3.52;1.17;;;25.40;99.90;;;;;;1864032;76;21058;-73
2021/06/28 06:06:37;;;;;;;2.30;1.07;;;26.30;99.90;;;;;;1860314;77;21177;-73
2021/06/28 06:09:03;;;;;;;1.42;1.30;;;26.10;99.90;;;;;;1862331;77;21073;-72
2021/06/28 06:11:29;;;;;;;2.10;1.10;;;25.60;99.90;;;;;;1862361;77;21065;-72
2021/06/28 06:13:55;;;;;;;1.67;0.90;;;25.30;99.90;;;;;;1863587;76;21043;-74
2021/06/28 06:16:24;;;;;;;3.10;1.30;;;25.30;99.90;;;;;;1864706;76;21342;-73
2021/06/28 06:18:49;;;;;;;1.02;0.88;;;25.30;99.90;;;;;;1859162;77;21077;-73
2021/06/28 06:21:15;;;;;;;1.10;1.00;;;25.60;99.90;;;;;;1862199;76;21081;-73
2021/06/28 06:23:42;;;;;;;2.47;0.85;;;25.80;99.90;;;;;;1865615;76;21070;-73
2021/06/28 06:26:08;;;;;;;2.62;1.00;;;26.20;99.90;;;;;;1864436;76;21090;-73
2021/06/28 06:28:34;;;;;;;2.15;1.15;;;26.00;99.90;;;;;;1863685;76;21081;-73
2021/06/28 06:31:00;;;;;;;1.55;1.05;;;25.00;99.90;;;;;;1868813;76;21093;-73
2021/06/28 06:33:26;;;;;;;1.32;1.00;;;25.90;99.90;;;;;;1862679;77;21043;-73
2021/06/28 06:35:52;;;;;;;2.05;0.85;;;26.40;99.90;;;;;;1862508;77;21129;-73
2021/06/28 06:38:18;;;;;;;2.58;1.37;;;27.10;99.90;;;;;;1862160;77;21147;-73
2021/06/28 06:40:48;;;;;;;1.05;0.78;;;28.10;99.90;;;;;;1862315;77;21167;-73
2021/06/28 06:43:12;;;;;;;2.37;0.70;;;28.50;99.90;;;;;;1866979;76;21101;-73
2021/06/28 06:45:38;;;;;;;1.45;0.90;;;28.70;99.90;;;;;;1865324;77;21093;-73
2021/06/28 06:48:04;;;;;;;1.92;1.07;;;28.10;99.90;;;;;;1867499;77;21077;-73
2021/06/28 06:50:31;;;;;;;6.75;1.27;;;27.80;99.90;;;;;;1863902;76;21094;-75
2021/06/28 06:52:57;;;;;;;0.70;0.70;;;28.10;99.90;;;;;;1866283;76;21255;-74
2021/06/28 06:55:25;;;;;;;2.40;0.95;;;29.00;99.90;;;;;;1867998;76;21092;-73
2021/06/28 06:57:51;;;;;;;9.05;0.93;;;28.90;99.90;;;;;;1865001;76;21081;-73
2021/06/28 07:00:17;;;;;;;1.27;0.90;;;28.40;99.90;;;;;;1861721;76;21085;-74
2021/06/28 07:02:43;;;;;;;9.00;1.12;;;29.20;99.90;;;;;;1867234;76;21093;-73
2021/06/28 07:05:09;;;;;;;2.47;1.00;;;29.60;99.90;;;;;;1863409;76;21085;-73
2021/06/28 07:07:37;;;;;;;3.70;1.30;;;28.80;99.90;;;;;;1868548;76;21089;-74
2021/06/28 07:10:03;;;;;;;4.78;1.25;;;28.60;99.90;;;;;;1862247;77;21244;-73
2021/06/28 07:12:29;;;;;;;1.75;1.02;;;27.60;99.90;;;;;;1863545;77;21081;-73
2021/06/28 07:14:55;;;;;;;5.03;0.95;;;27.90;99.90;;;;;;1862953;76;21065;-73
2021/06/28 07:17:22;;;;;;;1.50;0.98;;;28.60;99.90;;;;;;1862405;77;21159;-73
2021/06/28 07:19:48;;;;;;;1.60;0.90;;;28.70;99.90;;;;;;1867478;76;21070;-73
2021/06/28 07:22:14;;;;;;;1.22;0.80;;;27.40;99.90;;;;;;1863038;76;21055;-73
2021/06/28 07:24:40;;;;;;;3.30;0.93;;;28.00;99.90;;;;;;1863447;76;21156;-73
2021/06/28 07:27:06;;;;;;;1.75;0.70;;;29.00;99.90;;;;;;1859210;76;21085;-73
2021/06/28 07:29:32;;;;;;;1.95;0.85;;;28.90;99.90;;;;;;1863230;77;21125;-73
2021/06/28 07:31:58;;;;;;;3.30;1.00;;;28.50;99.90;;;;;;1862322;76;21051;-74
2021/06/28 07:34:24;;;;;;;1.27;0.95;;;28.50;99.90;;;;;;1862458;77;21140;-73
2021/06/28 07:36:51;;;;;;;2.30;0.95;;;26.90;99.90;;;;;;1866912;76;21175;-73
2021/06/28 07:39:17;;;;;;;4.55;1.00;;;27.40;99.90;;;;;;1865528;76;21085;-73
2021/06/28 07:41:43;;;;;;;0.98;0.80;;;28.50;99.90;;;;;;1867580;76;21090;-73
2021/06/28 07:44:09;;;;;;;1.55;1.00;;;29.40;99.90;;;;;;1865954;77;21090;-73
2021/06/28 07:46:35;;;;;;;1.25;0.75;;;29.90;99.90;;;;;;1865480;77;21081;-73
2021/06/28 07:49:01;;;;;;;4.55;1.12;;;29.70;99.90;;;;;;1867179;76;21155;-74
2021/06/28 07:51:27;;;;;;;1.07;0.80;;;29.20;99.90;;;;;;1865274;76;21054;-73
2021/06/28 07:53:53;;;;;;;0.75;0.75;;;29.70;99.90;;;;;;1862577;77;21073;-73
2021/06/28 07:56:20;;;;;;;1.15;0.68;;;30.00;99.90;;;;;;1862362;77;21085;-73
2021/06/28 07:58:46;;;;;;;2.35;1.17;;;29.50;99.90;;;;;;1865690;76;21498;-73
2021/06/28 08:01:12;;;;;;;1.57;0.90;;;28.30;99.90;;;;;;1864166;76;21548;-73
2021/06/28 08:03:44;;;;;;;1.47;0.90;;;28.90;99.90;;;;;;1863180;76;21458;-73
2021/06/28 08:06:06;;;;;;;1.27;1.17;;;29.10;99.90;;;;;;1863223;76;21097;-73
2021/06/28 08:08:32;;;;;;;6.50;1.10;;;28.90;99.90;;;;;;1862504;77;21187;-73
2021/06/28 08:10:58;;;;;;;1.02;0.82;;;28.50;99.90;;;;;;1862276;77;21089;-73
2021/06/28 08:13:25;;;;;;;3.75;1.10;;;28.20;99.90;;;;;;1864347;76;21090;-73
2021/06/28 08:15:51;;;;;;;1.75;1.07;;;28.60;99.90;;;;;;1864361;76;21163;-73
2021/06/28 08:18:17;;;;;;;2.72;1.02;;;28.10;99.90;;;;;;1862906;76;21086;-73
2021/06/28 08:20:43;;;;;;;1.52;0.80;;;27.40;99.90;;;;;;1865280;76;21090;-73
2021/06/28 08:23:10;;;;;;;1.40;0.90;;;28.10;99.90;;;;;;1864282;77;21051;-73
2021/06/28 08:25:37;;;;;;;0.95;0.70;;;28.60;99.90;;;;;;1859628;76;21496;-73
2021/06/28 08:28:03;;;;;;;1.42;0.75;;;28.50;99.90;;;;;;1866250;76;21733;-72
2021/06/28 08:30:29;;;;;;;2.60;0.78;;;28.90;99.90;;;;;;1864096;77;21085;-73
2021/06/28 08:32:55;;;;;;;1.12;0.80;;;29.00;99.90;;;;;;1863887;76;21089;-73
2021/06/28 08:35:21;;;;;;;1.98;0.85;;;29.30;99.90;;;;;;1862020;76;21050;-72
2021/06/28 08:37:47;;;;;;;4.75;1.30;;;29.20;99.90;;;;;;1862600;76;21078;-72
2021/06/28 08:40:14;;;;;;;0.70;0.70;;;29.30;99.90;;;;;;1862156;76;21074;-73
2021/06/28 08:42:40;;;;;;;6.03;0.85;;;29.00;99.90;;;;;;1869660;75;21091;-73
2021/06/28 08:45:06;;;;;;;2.90;0.80;;;28.50;99.90;;;;;;1885439;75;21092;-73
2021/06/28 08:47:32;;;;;;;1.57;0.70;;;28.40;99.90;;;;;;1878198;75;21158;-72
2021/06/28 08:49:58;;;;;;;1.35;0.90;;;29.00;99.90;;;;;;1881139;75;21053;-73
2021/06/28 08:52:24;;;;;;;1.15;0.70;;;29.30;99.90;;;;;;1883036;75;21073;-73
2021/06/28 08:54:50;;;;;;;0.72;0.70;;;30.10;99.90;;;;;;1878918;75;21076;-73
2021/06/28 08:57:17;;;;;;;8.48;0.88;;;29.90;99.90;;;;;;1882916;75;21154;-72
2021/06/28 08:59:43;;;;;;;0.62;0.62;;;29.50;99.90;;;;;;1883864;75;21049;-72
2021/06/28 09:02:09;;;;;;;0.80;0.70;;;29.00;99.90;;;;;;1878247;75;21076;-72
2021/06/28 09:04:35;;;;;;;2.05;0.72;;;28.80;99.90;;;;;;1877132;75;21176;-72
2021/06/28 09:07:01;;;;;;;0.72;0.70;;;28.60;99.90;;;;;;1882143;75;21163;-73
2021/06/28 09:09:27;;;;;;;1.70;0.98;;;29.00;99.90;;;;;;1877782;75;21058;-72
2021/06/28 09:11:53;;;;;;;1.37;0.93;;;28.50;99.90;;;;;;1876681;75;21088;-73
2021/06/28 09:14:24;;;;;;;7.85;0.90;;;28.90;99.90;;;;;;1883770;75;21088;-72
2021/06/28 09:16:47;;;;;;;0.60;0.60;;;28.90;99.90;;;;;;1877496;75;21183;-72
2021/06/28 09:19:14;;;;;;;0.90;0.62;;;29.40;99.90;;;;;;1879881;75;21061;-72
2021/06/28 09:21:40;;;;;;;3.60;1.15;;;29.10;99.90;;;;;;1877216;75;21158;-71
2021/06/28 09:24:08;;;;;;;1.10;0.68;;;28.90;99.90;;;;;;1881381;75;21165;-72
2021/06/28 09:26:34;;;;;;;0.70;0.70;;;29.30;99.90;;;;;;1882036;75;21156;-73
2021/06/28 09:29:03;;;;;;;1.05;0.82;;;30.10;99.90;;;;;;1878163;75;21500;-74
2021/06/28 09:31:30;;;;;;;0.82;0.82;;;29.80;99.90;;;;;;1879691;75;21135;-73
2021/06/28 09:33:56;;;;;;;3.08;0.80;;;29.80;99.90;;;;;;1883545;75;21057;-73
2021/06/28 09:36:23;;;;;;;1.00;0.85;;;30.00;99.90;;;;;;1885573;75;21119;-72
2021/06/28 09:38:49;;;;;;;2.60;0.90;;;29.70;99.90;;;;;;1886275;75;21084;-72
2021/06/28 09:41:15;;;;;;;1.27;0.85;;;30.00;99.90;;;;;;1881524;75;21122;-72
2021/06/28 09:43:41;;;;;;;0.60;0.60;;;30.10;99.90;;;;;;1885938;75;21157;-73
2021/06/28 09:46:07;;;;;;;0.55;0.50;;;30.40;99.90;;;;;;1884565;75;21092;-72
2021/06/28 09:48:38;;;;;;;0.57;0.57;;;30.70;99.90;;;;;;1878493;76;21076;-72
2021/06/28 09:51:01;;;;;;;0.75;0.60;;;30.60;99.90;;;;;;1876581;75;21053;-72
2021/06/28 09:53:27;;;;;;;0.70;0.62;;;30.00;99.90;;;;;;1881074;75;21076;-72
2021/06/28 09:55:53;;;;;;;0.80;0.80;;;30.30;99.90;;;;;;1878358;75;21187;-73
2021/06/28 09:58:24;;;;;;;5.90;0.80;;;30.70;99.90;;;;;;1877643;75;21049;-72
2021/06/28 10:00:50;;;;;;;0.85;0.82;;;30.40;99.90;;;;;;1876432;76;21098;-73
2021/06/28 10:03:17;;;;;;;3.50;0.90;;;30.80;99.90;;;;;;1880004;75;21127;-73
2021/06/28 10:05:56;;;;;;;2.15;0.70;;;30.50;99.90;;;;;;1881982;75;21096;-73
2021/06/28 10:08:11;;;;;;;1.32;0.90;;;30.20;99.90;;;;;;1880862;75;21105;-73
2021/06/28 10:10:37;;;;;;;3.60;0.90;;;30.20;99.90;;;;;;1878323;75;21108;-73
2021/06/28 10:13:04;;;;;;;0.82;0.65;;;30.60;99.90;;;;;;1878532;75;21166;-74
2021/06/28 10:15:30;;;;;;;1.12;0.70;;;30.90;99.90;;;;;;1889228;75;21086;-73
2021/06/28 10:17:56;;;;;;;0.85;0.85;;;30.60;99.90;;;;;;1881682;75;21087;-74
2021/06/28 10:20:22;;;;;;;2.27;0.72;;;30.60;99.90;;;;;;1876854;75;21081;-74
2021/06/28 10:22:48;;;;;;;1.90;0.90;;;30.50;99.90;;;;;;1878052;75;21088;-73
2021/06/28 10:25:14;;;;;;;1.35;1.10;;;31.00;99.90;;;;;;1877750;75;21503;-74
2021/06/28 10:27:40;;;;;;;0.85;0.85;;;30.90;99.90;;;;;;1881318;75;21170;-74
2021/06/28 10:30:08;;;;;;;1.00;0.80;;;31.60;99.90;;;;;;1876623;76;21422;-74
2021/06/28 10:32:34;;;;;;;1.32;0.85;;;31.50;99.90;;;;;;1879645;75;21088;-74
2021/06/28 10:35:01;;;;;;;0.80;0.80;;;31.10;99.90;;;;;;1876803;76;21076;-74
2021/06/28 10:37:27;;;;;;;1.15;0.72;;;31.00;99.90;;;;;;1881441;75;21513;-73
2021/06/28 10:39:53;;;;;;;1.12;0.70;;;31.40;99.90;;;;;;1883620;75;21500;-73
2021/06/28 10:42:19;;;;;;;1.17;0.68;;;31.10;99.90;;;;;;1878320;75;21510;-74
2021/06/28 10:44:45;;;;;;;1.62;0.80;;;30.70;99.90;;;;;;1878416;75;21586;-73
2021/06/28 10:47:11;;;;;;;1.02;0.80;;;31.20;99.90;;;;;;1876744;76;21578;-74
2021/06/28 10:49:37;;;;;;;1.67;0.93;;;31.60;99.90;;;;;;1881656;75;21599;-74
2021/06/28 10:52:03;;;;;;;1.92;0.90;;;31.60;99.90;;;;;;1876497;75;21079;-74
2021/06/28 10:54:29;;;;;;;1.80;1.15;;;31.50;99.90;;;;;;1876846;75;21162;-74
2021/06/28 10:56:56;;;;;;;0.80;0.80;;;31.70;99.90;;;;;;1876929;76;21076;-74
2021/06/28 10:59:22;;;;;;;3.52;0.80;;;31.10;99.90;;;;;;1882808;75;21162;-73
2021/06/28 11:01:49;;;;;;;1.12;0.90;;;30.60;99.90;;;;;;1881816;75;21149;-72
2021/06/28 11:04:15;;;;;;;0.90;0.85;;;30.90;99.90;;;;;;1888819;75;21087;-73
2021/06/28 11:06:41;;;;;;;1.00;0.82;;;31.50;99.90;;;;;;1879241;75;21634;-73
2021/06/28 11:09:07;;;;;;;0.70;0.70;;;31.40;99.90;;;;;;1877841;75;21501;-73
2021/06/28 11:11:33;;;;;;;1.62;0.90;;;31.40;99.90;;;;;;1879011;75;21084;-73
2021/06/28 11:13:59;;;;;;;1.65;0.85;;;31.70;99.90;;;;;;1879790;75;21092;-72
2021/06/28 11:16:25;;;;;;;3.83;0.90;;;31.80;99.90;;;;;;1883562;75;21080;-73
2021/06/28 11:18:52;;;;;;;5.75;0.90;;;31.80;99.90;;;;;;1880009;75;21194;-73
2021/06/28 11:21:18;;;;;;;6.42;1.10;;;32.40;99.90;;;;;;1879435;75;21088;-72
2021/06/28 11:23:44;;;;;;;1.10;0.70;;;32.50;99.90;;;;;;1876543;75;21080;-72
2021/06/28 11:26:10;;;;;;;1.95;0.90;;;32.40;99.90;;;;;;1877251;75;21088;-72
2021/06/28 11:31:21;;;;;;;2.25;1.05;;;32.60;99.90;;;;;;1807654;78;21199;-73
2021/06/28 11:33:48;;;;;;;0.98;0.90;;;32.30;99.90;;;;;;1810737;78;21234;-72
2021/06/28 11:36:14;;;;;;;3.20;0.80;;;31.50;99.90;;;;;;1810328;79;21505;-72
2021/06/28 11:38:40;;;;;;;1.02;0.93;;;31.50;99.90;;;;;;1809842;79;21485;-74
2021/06/28 11:41:06;;;;;;;1.45;1.00;;;31.60;99.90;;;;;;1806522;79;21517;-73
2021/06/28 11:43:32;;;;;;;0.80;0.78;;;31.90;99.90;;;;;;1806501;79;21655;-73
2021/06/28 11:45:58;;;;;;;2.77;1.30;;;31.80;99.90;;;;;;1811921;79;21565;-74
2021/06/28 11:48:24;;;;;;;1.67;1.10;;;32.00;99.90;;;;;;1809625;79;21471;-73
2021/06/28 11:50:50;;;;;;;1.65;1.05;;;32.40;99.90;;;;;;1815806;78;21607;-73
2021/06/28 11:53:17;;;;;;;2.80;1.15;;;32.60;99.90;;;;;;1810851;79;21457;-73
2021/06/28 11:55:43;;;;;;;5.08;1.12;;;32.40;99.90;;;;;;1813129;79;21520;-73
2021/06/28 11:58:09;;;;;;;1.15;1.05;;;32.40;99.90;;;;;;1810672;79;21524;-73
2021/06/28 12:00:35;;;;;;;1.72;1.00;;;32.20;99.90;;;;;;1813575;79;21545;-73
2021/06/28 12:03:01;;;;;;;7.72;1.10;;;32.50;99.90;;;;;;1814551;79;21504;-73
2021/06/28 12:05:27;;;;;;;1.12;1.00;;;33.20;99.90;;;;;;1807571;79;21415;-73
2021/06/28 12:07:53;;;;;;;1.02;1.00;;;33.60;99.90;;;;;;1816714;79;21180;-73
2021/06/28 12:10:19;;;;;;;2.65;0.80;;;33.80;99.90;;;;;;1807529;79;21168;-73
2021/06/28 12:12:46;;;;;;;1.17;0.98;;;33.30;99.90;;;;;;1810337;79;21179;-73
2021/06/28 12:15:13;;;;;;;2.45;0.98;;;32.90;99.90;;;;;;1811399;79;21191;-74
2021/06/28 12:17:39;;;;;;;1.90;1.10;;;32.90;99.90;;;;;;1812127;79;21109;-73
2021/06/28 12:20:05;;;;;;;2.60;1.15;;;32.90;99.90;;;;;;1811615;79;21182;-72
2021/06/28 12:22:32;;;;;;;1.95;1.02;;;32.90;99.90;;;;;;1808571;79;21062;-73
2021/06/28 12:24:58;;;;;;;1.05;0.90;;;33.10;99.90;;;;;;1808274;79;21673;-73
2021/06/28 12:27:24;;;;;;;0.98;0.90;;;33.20;99.90;;;;;;1808353;79;21517;-72
2021/06/28 12:29:50;;;;;;;1.85;1.12;;;33.40;99.90;;;;;;1808505;79;21528;-73
2021/06/28 12:32:16;;;;;;;2.20;1.02;;;33.20;99.90;;;;;;1812612;79;21098;-72
2021/06/28 12:34:42;;;;;;;1.87;1.17;;;33.30;99.90;;;;;;1812143;78;21112;-72
2021/06/28 12:37:08;;;;;;;2.00;0.90;;;33.90;99.90;;;;;;1807512;79;21214;-73
2021/06/28 12:39:35;;;;;;;1.10;0.95;;;33.30;99.90;;;;;;1814761;79;21171;-73
2021/06/28 12:42:01;;;;;;;2.27;1.20;;;33.50;99.90;;;;;;1811746;79;21180;-73
2021/06/28 12:44:27;;;;;;;2.45;1.32;;;33.60;99.90;;;;;;1811467;78;21057;-73